sensor_id;sensor_type;location;lat;lon;timestamp;P1;durP1;ratioP1;P2;durP2;ratioP2
16822;SDS011;8528;49.976;11.858;2023-12-04T00:02:02;17.17;;;9.13;;
16822;SDS011;8528;49.976;11.858;2023-12-04T00:04:29;17.80;;;9.67;;
16822;SDS011;8528;49.976;11.858;2023-12-04T00:06:56;18.47;;;9.90;;
16822;SDS011;8528;49.976;11.858;2023-12-04T00:09:23;21.43;;;11.03;;
16822;SDS011;8528;49.976;11.858;2023-12-04T00:11:51;16.97;;;9.93;;
16822;SDS011;8528;49.976;11.858;2023-12-04T00:14:18;17.17;;;9.50;;
16822;SDS011;8528;49.976;11.858;2023-12-04T00:16:45;16.33;;;9.03;;
16822;SDS011;8528;49.976;11.858;2023-12-04T00:19:12;14.07;;;9.07;;
16822;SDS011;8528;49.976;11.858;2023-12-04T00:21:39;16.67;;;9.40;;
16822;SDS011;8528;49.976;11.858;2023-12-04T00:24:06;16.50;;;9.80;;
16822;SDS011;8528;49.976;11.858;2023-12-04T00:26:33;20.10;;;10.27;;
16822;SDS011;8528;49.976;11.858;2023-12-04T00:29:00;18.43;;;10.10;;
16822;SDS011;8528;49.976;11.858;2023-12-04T00:31:27;19.30;;;10.33;;
16822;SDS011;8528;49.976;11.858;2023-12-04T00:33:55;22.50;;;10.20;;
16822;SDS011;8528;49.976;11.858;2023-12-04T00:36:21;15.50;;;9.03;;
16822;SDS011;8528;49.976;11.858;2023-12-04T00:38:48;16.17;;;9.47;;
16822;SDS011;8528;49.976;11.858;2023-12-04T00:41:15;20.77;;;10.20;;
16822;SDS011;8528;49.976;11.858;2023-12-04T00:43:42;16.27;;;10.03;;
16822;SDS011;8528;49.976;11.858;2023-12-04T00:46:08;18.03;;;10.10;;
16822;SDS011;8528;49.976;11.858;2023-12-04T00:48:35;20.03;;;10.57;;
16822;SDS011;8528;49.976;11.858;2023-12-04T00:51:02;17.43;;;9.90;;
16822;SDS011;8528;49.976;11.858;2023-12-04T00:53:29;17.33;;;10.63;;
16822;SDS011;8528;49.976;11.858;2023-12-04T00:55:56;17.07;;;9.97;;
16822;SDS011;8528;49.976;11.858;2023-12-04T00:58:24;20.83;;;10.70;;
16822;SDS011;8528;49.976;11.858;2023-12-04T01:00:50;20.40;;;10.70;;
16822;SDS011;8528;49.976;11.858;2023-12-04T01:03:18;19.17;;;11.07;;
16822;SDS011;8528;49.976;11.858;2023-12-04T01:05:46;20.07;;;10.43;;
16822;SDS011;8528;49.976;11.858;2023-12-04T01:08:12;17.97;;;10.53;;
16822;SDS011;8528;49.976;11.858;2023-12-04T01:10:39;18.57;;;10.33;;
16822;SDS011;8528;49.976;11.858;2023-12-04T01:13:06;18.90;;;10.97;;
16822;SDS011;8528;49.976;11.858;2023-12-04T01:15:33;20.83;;;11.47;;
16822;SDS011;8528;49.976;11.858;2023-12-04T01:18:00;21.90;;;11.37;;
16822;SDS011;8528;49.976;11.858;2023-12-04T01:20:27;21.43;;;10.93;;
16822;SDS011;8528;49.976;11.858;2023-12-04T01:22:54;18.87;;;9.77;;
16822;SDS011;8528;49.976;11.858;2023-12-04T01:25:20;19.93;;;11.30;;
16822;SDS011;8528;49.976;11.858;2023-12-04T01:27:48;19.97;;;10.23;;
16822;SDS011;8528;49.976;11.858;2023-12-04T01:30:14;19.03;;;10.37;;
16822;SDS011;8528;49.976;11.858;2023-12-04T01:32:41;17.30;;;10.67;;
16822;SDS011;8528;49.976;11.858;2023-12-04T01:35:08;19.50;;;10.93;;
16822;SDS011;8528;49.976;11.858;2023-12-04T01:37:36;18.00;;;10.03;;
16822;SDS011;8528;49.976;11.858;2023-12-04T01:40:04;19.50;;;10.30;;
16822;SDS011;8528;49.976;11.858;2023-12-04T01:42:33;21.17;;;10.00;;
16822;SDS011;8528;49.976;11.858;2023-12-04T01:45:00;18.77;;;10.30;;
16822;SDS011;8528;49.976;11.858;2023-12-04T01:47:27;20.17;;;10.77;;
16822;SDS011;8528;49.976;11.858;2023-12-04T01:49:55;20.77;;;10.83;;
16822;SDS011;8528;49.976;11.858;2023-12-04T01:52:22;18.33;;;10.77;;
16822;SDS011;8528;49.976;11.858;2023-12-04T01:54:50;19.43;;;9.63;;
16822;SDS011;8528;49.976;11.858;2023-12-04T01:57:17;15.87;;;9.60;;
16822;SDS011;8528;49.976;11.858;2023-12-04T01:59:45;17.27;;;9.63;;
16822;SDS011;8528;49.976;11.858;2023-12-04T02:02:12;18.23;;;10.53;;
16822;SDS011;8528;49.976;11.858;2023-12-04T02:04:39;18.17;;;10.70;;
16822;SDS011;8528;49.976;11.858;2023-12-04T02:07:06;18.83;;;10.70;;
16822;SDS011;8528;49.976;11.858;2023-12-04T02:09:35;21.33;;;10.70;;
16822;SDS011;8528;49.976;11.858;2023-12-04T02:12:03;17.97;;;10.30;;
16822;SDS011;8528;49.976;11.858;2023-12-04T02:14:30;23.37;;;11.33;;
16822;SDS011;8528;49.976;11.858;2023-12-04T02:16:57;21.87;;;11.17;;
16822;SDS011;8528;49.976;11.858;2023-12-04T02:19:27;19.97;;;10.37;;
16822;SDS011;8528;49.976;11.858;2023-12-04T02:21:54;20.27;;;10.93;;
16822;SDS011;8528;49.976;11.858;2023-12-04T02:24:20;21.77;;;11.63;;
16822;SDS011;8528;49.976;11.858;2023-12-04T02:26:47;20.90;;;11.03;;
16822;SDS011;8528;49.976;11.858;2023-12-04T02:29:37;20.03;;;10.63;;
16822;SDS011;8528;49.976;11.858;2023-12-04T02:32:07;17.57;;;9.93;;
16822;SDS011;8528;49.976;11.858;2023-12-04T02:34:41;26.10;;;10.97;;
16822;SDS011;8528;49.976;11.858;2023-12-04T02:37:10;20.30;;;10.90;;
16822;SDS011;8528;49.976;11.858;2023-12-04T02:39:38;17.97;;;10.67;;
16822;SDS011;8528;49.976;11.858;2023-12-04T02:42:05;22.97;;;12.00;;
16822;SDS011;8528;49.976;11.858;2023-12-04T02:44:32;24.70;;;12.10;;
16822;SDS011;8528;49.976;11.858;2023-12-04T02:46:59;21.00;;;10.83;;
16822;SDS011;8528;49.976;11.858;2023-12-04T02:49:26;21.77;;;11.60;;
16822;SDS011;8528;49.976;11.858;2023-12-04T02:51:53;23.43;;;12.43;;
16822;SDS011;8528;49.976;11.858;2023-12-04T02:54:20;20.63;;;11.07;;
16822;SDS011;8528;49.976;11.858;2023-12-04T02:56:46;19.90;;;10.63;;
16822;SDS011;8528;49.976;11.858;2023-12-04T02:59:14;21.10;;;10.73;;
16822;SDS011;8528;49.976;11.858;2023-12-04T03:01:40;19.57;;;11.27;;
16822;SDS011;8528;49.976;11.858;2023-12-04T03:04:07;18.37;;;9.87;;
16822;SDS011;8528;49.976;11.858;2023-12-04T03:06:34;20.73;;;10.60;;
16822;SDS011;8528;49.976;11.858;2023-12-04T03:09:02;18.53;;;9.87;;
16822;SDS011;8528;49.976;11.858;2023-12-04T03:11:30;19.20;;;10.77;;
16822;SDS011;8528;49.976;11.858;2023-12-04T03:13:59;19.20;;;11.10;;
16822;SDS011;8528;49.976;11.858;2023-12-04T03:16:27;15.97;;;9.07;;
16822;SDS011;8528;49.976;11.858;2023-12-04T03:18:54;15.77;;;9.67;;
16822;SDS011;8528;49.976;11.858;2023-12-04T03:21:21;19.37;;;10.03;;
16822;SDS011;8528;49.976;11.858;2023-12-04T03:23:48;20.67;;;10.20;;
16822;SDS011;8528;49.976;11.858;2023-12-04T03:26:14;15.93;;;9.47;;
16822;SDS011;8528;49.976;11.858;2023-12-04T03:28:42;17.43;;;9.43;;
16822;SDS011;8528;49.976;11.858;2023-12-04T03:31:09;17.63;;;9.37;;
16822;SDS011;8528;49.976;11.858;2023-12-04T03:33:36;18.33;;;9.97;;
16822;SDS011;8528;49.976;11.858;2023-12-04T03:36:03;18.10;;;9.60;;
16822;SDS011;8528;49.976;11.858;2023-12-04T03:38:30;16.83;;;9.13;;
16822;SDS011;8528;49.976;11.858;2023-12-04T03:40:57;20.87;;;9.53;;
16822;SDS011;8528;49.976;11.858;2023-12-04T03:43:24;15.97;;;9.10;;
16822;SDS011;8528;49.976;11.858;2023-12-04T03:45:50;18.57;;;9.30;;
16822;SDS011;8528;49.976;11.858;2023-12-04T03:48:17;18.10;;;8.93;;
16822;SDS011;8528;49.976;11.858;2023-12-04T03:50:44;19.03;;;9.80;;
16822;SDS011;8528;49.976;11.858;2023-12-04T03:53:11;18.47;;;9.73;;
16822;SDS011;8528;49.976;11.858;2023-12-04T03:55:38;18.67;;;9.43;;
16822;SDS011;8528;49.976;11.858;2023-12-04T03:58:05;20.20;;;10.33;;
16822;SDS011;8528;49.976;11.858;2023-12-04T04:00:32;24.20;;;10.30;;
16822;SDS011;8528;49.976;11.858;2023-12-04T04:02:59;19.33;;;10.10;;
16822;SDS011;8528;49.976;11.858;2023-12-04T04:05:26;18.67;;;9.00;;
16822;SDS011;8528;49.976;11.858;2023-12-04T04:07:52;20.23;;;10.53;;
16822;SDS011;8528;49.976;11.858;2023-12-04T04:10:19;21.60;;;10.70;;
16822;SDS011;8528;49.976;11.858;2023-12-04T04:12:46;19.50;;;9.87;;
16822;SDS011;8528;49.976;11.858;2023-12-04T04:15:12;16.40;;;9.30;;
16822;SDS011;8528;49.976;11.858;2023-12-04T04:17:39;18.37;;;9.70;;
16822;SDS011;8528;49.976;11.858;2023-12-04T04:20:06;22.57;;;10.57;;
16822;SDS011;8528;49.976;11.858;2023-12-04T04:22:34;21.17;;;10.90;;
16822;SDS011;8528;49.976;11.858;2023-12-04T04:25:05;20.00;;;10.90;;
16822;SDS011;8528;49.976;11.858;2023-12-04T04:27:32;17.23;;;9.90;;
16822;SDS011;8528;49.976;11.858;2023-12-04T04:29:59;19.30;;;10.37;;
16822;SDS011;8528;49.976;11.858;2023-12-04T04:32:26;18.10;;;9.17;;
16822;SDS011;8528;49.976;11.858;2023-12-04T04:34:53;14.50;;;8.70;;
16822;SDS011;8528;49.976;11.858;2023-12-04T04:37:20;16.43;;;8.80;;
16822;SDS011;8528;49.976;11.858;2023-12-04T04:39:47;16.47;;;8.80;;
16822;SDS011;8528;49.976;11.858;2023-12-04T04:42:14;15.17;;;8.73;;
16822;SDS011;8528;49.976;11.858;2023-12-04T04:44:41;20.17;;;9.73;;
16822;SDS011;8528;49.976;11.858;2023-12-04T04:47:07;17.23;;;9.23;;
16822;SDS011;8528;49.976;11.858;2023-12-04T04:49:35;19.57;;;9.37;;
16822;SDS011;8528;49.976;11.858;2023-12-04T04:52:01;17.63;;;9.40;;
16822;SDS011;8528;49.976;11.858;2023-12-04T04:54:30;13.60;;;8.40;;
16822;SDS011;8528;49.976;11.858;2023-12-04T04:56:59;18.80;;;9.37;;
16822;SDS011;8528;49.976;11.858;2023-12-04T04:59:25;15.37;;;8.77;;
16822;SDS011;8528;49.976;11.858;2023-12-04T05:01:56;16.00;;;9.17;;
16822;SDS011;8528;49.976;11.858;2023-12-04T05:04:23;14.10;;;9.70;;
16822;SDS011;8528;49.976;11.858;2023-12-04T05:06:50;19.07;;;9.53;;
16822;SDS011;8528;49.976;11.858;2023-12-04T05:09:17;18.03;;;9.87;;
16822;SDS011;8528;49.976;11.858;2023-12-04T05:11:44;17.90;;;9.93;;
16822;SDS011;8528;49.976;11.858;2023-12-04T05:14:11;18.40;;;9.83;;
16822;SDS011;8528;49.976;11.858;2023-12-04T05:16:38;16.40;;;9.57;;
16822;SDS011;8528;49.976;11.858;2023-12-04T05:19:05;16.70;;;8.93;;
16822;SDS011;8528;49.976;11.858;2023-12-04T05:21:32;17.17;;;9.53;;
16822;SDS011;8528;49.976;11.858;2023-12-04T05:23:59;14.20;;;8.53;;
16822;SDS011;8528;49.976;11.858;2023-12-04T05:26:26;17.33;;;9.73;;
16822;SDS011;8528;49.976;11.858;2023-12-04T05:28:53;18.37;;;9.60;;
16822;SDS011;8528;49.976;11.858;2023-12-04T05:31:19;14.37;;;8.33;;
16822;SDS011;8528;49.976;11.858;2023-12-04T05:33:46;13.63;;;8.43;;
16822;SDS011;8528;49.976;11.858;2023-12-04T05:36:13;17.53;;;8.33;;
16822;SDS011;8528;49.976;11.858;2023-12-04T05:38:40;15.27;;;8.87;;
16822;SDS011;8528;49.976;11.858;2023-12-04T05:41:07;16.33;;;8.80;;
16822;SDS011;8528;49.976;11.858;2023-12-04T05:43:34;16.67;;;8.43;;
16822;SDS011;8528;49.976;11.858;2023-12-04T05:46:00;15.70;;;8.73;;
16822;SDS011;8528;49.976;11.858;2023-12-04T05:48:28;15.90;;;9.03;;
16822;SDS011;8528;49.976;11.858;2023-12-04T05:50:55;13.93;;;8.87;;
16822;SDS011;8528;49.976;11.858;2023-12-04T05:53:21;14.23;;;8.80;;
16822;SDS011;8528;49.976;11.858;2023-12-04T05:55:48;15.97;;;8.20;;
16822;SDS011;8528;49.976;11.858;2023-12-04T05:58:15;17.77;;;9.90;;
16822;SDS011;8528;49.976;11.858;2023-12-04T06:00:42;15.20;;;8.10;;
16822;SDS011;8528;49.976;11.858;2023-12-04T06:03:08;14.57;;;7.57;;
16822;SDS011;8528;49.976;11.858;2023-12-04T06:05:36;14.07;;;8.07;;
16822;SDS011;8528;49.976;11.858;2023-12-04T06:08:03;17.23;;;9.33;;
16822;SDS011;8528;49.976;11.858;2023-12-04T06:10:30;14.93;;;8.53;;
16822;SDS011;8528;49.976;11.858;2023-12-04T06:12:56;17.47;;;9.33;;
16822;SDS011;8528;49.976;11.858;2023-12-04T06:15:23;15.47;;;8.27;;
16822;SDS011;8528;49.976;11.858;2023-12-04T06:17:50;16.13;;;8.50;;
16822;SDS011;8528;49.976;11.858;2023-12-04T06:20:17;14.40;;;8.40;;
16822;SDS011;8528;49.976;11.858;2023-12-04T06:22:44;18.57;;;9.37;;
16822;SDS011;8528;49.976;11.858;2023-12-04T06:25:11;15.80;;;8.67;;
16822;SDS011;8528;49.976;11.858;2023-12-04T06:27:38;14.60;;;9.23;;
16822;SDS011;8528;49.976;11.858;2023-12-04T06:30:06;15.90;;;8.20;;
16822;SDS011;8528;49.976;11.858;2023-12-04T06:32:33;18.77;;;9.43;;
16822;SDS011;8528;49.976;11.858;2023-12-04T06:35:00;14.17;;;8.70;;
16822;SDS011;8528;49.976;11.858;2023-12-04T06:37:27;15.53;;;9.83;;
16822;SDS011;8528;49.976;11.858;2023-12-04T06:39:55;19.53;;;10.40;;
16822;SDS011;8528;49.976;11.858;2023-12-04T06:42:26;15.13;;;8.47;;
16822;SDS011;8528;49.976;11.858;2023-12-04T06:44:53;14.73;;;9.67;;
16822;SDS011;8528;49.976;11.858;2023-12-04T06:47:22;14.93;;;9.23;;
16822;SDS011;8528;49.976;11.858;2023-12-04T06:49:49;14.77;;;9.10;;
16822;SDS011;8528;49.976;11.858;2023-12-04T06:52:16;16.23;;;9.73;;
16822;SDS011;8528;49.976;11.858;2023-12-04T06:54:43;23.43;;;12.10;;
16822;SDS011;8528;49.976;11.858;2023-12-04T06:57:10;24.07;;;12.23;;
16822;SDS011;8528;49.976;11.858;2023-12-04T06:59:37;19.70;;;12.63;;
16822;SDS011;8528;49.976;11.858;2023-12-04T07:02:04;22.27;;;12.40;;
16822;SDS011;8528;49.976;11.858;2023-12-04T07:04:31;21.90;;;11.70;;
16822;SDS011;8528;49.976;11.858;2023-12-04T07:06:58;23.13;;;12.67;;
16822;SDS011;8528;49.976;11.858;2023-12-04T07:09:32;17.27;;;10.83;;
16822;SDS011;8528;49.976;11.858;2023-12-04T07:11:58;17.20;;;10.20;;
16822;SDS011;8528;49.976;11.858;2023-12-04T07:14:26;36.03;;;16.37;;
16822;SDS011;8528;49.976;11.858;2023-12-04T07:16:53;54.13;;;20.73;;
16822;SDS011;8528;49.976;11.858;2023-12-04T07:19:20;31.80;;;13.33;;
16822;SDS011;8528;49.976;11.858;2023-12-04T07:21:47;33.10;;;15.37;;
16822;SDS011;8528;49.976;11.858;2023-12-04T07:24:14;19.00;;;11.37;;
16822;SDS011;8528;49.976;11.858;2023-12-04T07:26:42;18.87;;;11.03;;
16822;SDS011;8528;49.976;11.858;2023-12-04T07:29:09;22.67;;;12.07;;
16822;SDS011;8528;49.976;11.858;2023-12-04T07:31:37;23.97;;;12.67;;
16822;SDS011;8528;49.976;11.858;2023-12-04T07:34:04;21.83;;;13.60;;
16822;SDS011;8528;49.976;11.858;2023-12-04T07:36:31;23.53;;;14.27;;
16822;SDS011;8528;49.976;11.858;2023-12-04T07:38:58;19.63;;;11.33;;
16822;SDS011;8528;49.976;11.858;2023-12-04T07:41:25;24.90;;;12.80;;
16822;SDS011;8528;49.976;11.858;2023-12-04T07:43:51;18.77;;;12.10;;
16822;SDS011;8528;49.976;11.858;2023-12-04T07:46:19;23.03;;;13.03;;
16822;SDS011;8528;49.976;11.858;2023-12-04T07:48:45;22.03;;;12.67;;
16822;SDS011;8528;49.976;11.858;2023-12-04T07:51:13;16.87;;;10.17;;
16822;SDS011;8528;49.976;11.858;2023-12-04T07:53:39;16.50;;;9.70;;
16822;SDS011;8528;49.976;11.858;2023-12-04T07:56:06;20.70;;;11.63;;
16822;SDS011;8528;49.976;11.858;2023-12-04T07:58:33;22.07;;;12.00;;
16822;SDS011;8528;49.976;11.858;2023-12-04T08:01:00;18.47;;;11.27;;
16822;SDS011;8528;49.976;11.858;2023-12-04T08:03:27;16.93;;;10.67;;
16822;SDS011;8528;49.976;11.858;2023-12-04T08:05:54;13.37;;;9.00;;
16822;SDS011;8528;49.976;11.858;2023-12-04T08:08:20;13.50;;;10.40;;
16822;SDS011;8528;49.976;11.858;2023-12-04T08:10:47;15.70;;;9.97;;
16822;SDS011;8528;49.976;11.858;2023-12-04T08:13:14;19.63;;;13.40;;
16822;SDS011;8528;49.976;11.858;2023-12-04T08:15:42;16.80;;;12.07;;
16822;SDS011;8528;49.976;11.858;2023-12-04T08:18:11;21.67;;;15.60;;
16822;SDS011;8528;49.976;11.858;2023-12-04T08:20:37;13.27;;;8.53;;
16822;SDS011;8528;49.976;11.858;2023-12-04T08:23:06;11.67;;;7.73;;
16822;SDS011;8528;49.976;11.858;2023-12-04T08:25:34;12.30;;;7.60;;
16822;SDS011;8528;49.976;11.858;2023-12-04T08:28:02;13.03;;;7.87;;
16822;SDS011;8528;49.976;11.858;2023-12-04T08:30:29;10.37;;;7.30;;
16822;SDS011;8528;49.976;11.858;2023-12-04T08:32:57;13.03;;;8.50;;
16822;SDS011;8528;49.976;11.858;2023-12-04T08:35:23;17.03;;;10.40;;
16822;SDS011;8528;49.976;11.858;2023-12-04T08:37:50;14.33;;;9.20;;
16822;SDS011;8528;49.976;11.858;2023-12-04T08:40:18;20.17;;;13.67;;
16822;SDS011;8528;49.976;11.858;2023-12-04T08:42:44;111.40;;;48.53;;
16822;SDS011;8528;49.976;11.858;2023-12-04T08:45:11;73.30;;;37.40;;
16822;SDS011;8528;49.976;11.858;2023-12-04T08:47:39;45.90;;;26.93;;
16822;SDS011;8528;49.976;11.858;2023-12-04T08:50:06;22.73;;;13.97;;
16822;SDS011;8528;49.976;11.858;2023-12-04T08:52:33;16.37;;;10.50;;
16822;SDS011;8528;49.976;11.858;2023-12-04T08:55:00;19.27;;;12.30;;
16822;SDS011;8528;49.976;11.858;2023-12-04T08:57:28;16.97;;;11.37;;
16822;SDS011;8528;49.976;11.858;2023-12-04T08:59:55;22.60;;;13.47;;
16822;SDS011;8528;49.976;11.858;2023-12-04T09:02:22;21.20;;;14.53;;
16822;SDS011;8528;49.976;11.858;2023-12-04T09:04:48;24.07;;;15.10;;
16822;SDS011;8528;49.976;11.858;2023-12-04T09:07:15;21.83;;;14.37;;
16822;SDS011;8528;49.976;11.858;2023-12-04T09:09:46;23.33;;;15.13;;
16822;SDS011;8528;49.976;11.858;2023-12-04T09:12:13;21.63;;;15.87;;
16822;SDS011;8528;49.976;11.858;2023-12-04T09:14:40;22.57;;;15.83;;
16822;SDS011;8528;49.976;11.858;2023-12-04T09:17:07;16.47;;;11.60;;
16822;SDS011;8528;49.976;11.858;2023-12-04T09:19:34;14.23;;;10.23;;
16822;SDS011;8528;49.976;11.858;2023-12-04T09:22:01;14.03;;;9.37;;
16822;SDS011;8528;49.976;11.858;2023-12-04T09:24:42;13.17;;;10.03;;
16822;SDS011;8528;49.976;11.858;2023-12-04T09:27:10;16.30;;;10.40;;
16822;SDS011;8528;49.976;11.858;2023-12-04T09:29:38;16.70;;;10.97;;
16822;SDS011;8528;49.976;11.858;2023-12-04T09:32:04;19.40;;;12.27;;
16822;SDS011;8528;49.976;11.858;2023-12-04T09:34:32;14.00;;;10.23;;
16822;SDS011;8528;49.976;11.858;2023-12-04T09:36:59;18.73;;;12.87;;
16822;SDS011;8528;49.976;11.858;2023-12-04T09:39:36;20.30;;;13.97;;
16822;SDS011;8528;49.976;11.858;2023-12-04T09:42:03;16.93;;;13.60;;
16822;SDS011;8528;49.976;11.858;2023-12-04T09:44:30;19.70;;;14.73;;
16822;SDS011;8528;49.976;11.858;2023-12-04T09:46:58;22.17;;;17.23;;
16822;SDS011;8528;49.976;11.858;2023-12-04T09:49:27;19.27;;;15.50;;
16822;SDS011;8528;49.976;11.858;2023-12-04T09:52:00;20.60;;;16.27;;
16822;SDS011;8528;49.976;11.858;2023-12-04T09:54:29;19.70;;;16.93;;
16822;SDS011;8528;49.976;11.858;2023-12-04T09:56:57;21.07;;;17.87;;
16822;SDS011;8528;49.976;11.858;2023-12-04T09:59:24;21.67;;;17.87;;
16822;SDS011;8528;49.976;11.858;2023-12-04T10:01:55;20.13;;;17.37;;
16822;SDS011;8528;49.976;11.858;2023-12-04T10:04:23;18.70;;;16.63;;
16822;SDS011;8528;49.976;11.858;2023-12-04T10:06:51;17.90;;;14.77;;
16822;SDS011;8528;49.976;11.858;2023-12-04T10:09:18;18.33;;;16.10;;
16822;SDS011;8528;49.976;11.858;2023-12-04T10:11:46;18.43;;;16.43;;
16822;SDS011;8528;49.976;11.858;2023-12-04T10:14:16;18.50;;;14.87;;
16822;SDS011;8528;49.976;11.858;2023-12-04T10:16:44;16.97;;;15.27;;
16822;SDS011;8528;49.976;11.858;2023-12-04T10:19:14;18.20;;;15.40;;
16822;SDS011;8528;49.976;11.858;2023-12-04T10:21:54;19.07;;;15.37;;
16822;SDS011;8528;49.976;11.858;2023-12-04T10:24:33;19.00;;;15.80;;
16822;SDS011;8528;49.976;11.858;2023-12-04T10:27:03;16.67;;;14.30;;
16822;SDS011;8528;49.976;11.858;2023-12-04T10:29:42;18.63;;;15.10;;
16822;SDS011;8528;49.976;11.858;2023-12-04T10:32:12;14.90;;;12.17;;
16822;SDS011;8528;49.976;11.858;2023-12-04T10:34:43;14.47;;;11.83;;
16822;SDS011;8528;49.976;11.858;2023-12-04T10:37:10;14.87;;;12.00;;
16822;SDS011;8528;49.976;11.858;2023-12-04T10:39:50;14.17;;;11.90;;
16822;SDS011;8528;49.976;11.858;2023-12-04T10:42:27;15.30;;;11.93;;
16822;SDS011;8528;49.976;11.858;2023-12-04T10:44:56;15.03;;;13.37;;
16822;SDS011;8528;49.976;11.858;2023-12-04T10:47:29;15.97;;;12.10;;
16822;SDS011;8528;49.976;11.858;2023-12-04T10:50:00;15.57;;;12.83;;
16822;SDS011;8528;49.976;11.858;2023-12-04T10:52:28;18.30;;;13.93;;
16822;SDS011;8528;49.976;11.858;2023-12-04T10:54:56;16.67;;;13.03;;
16822;SDS011;8528;49.976;11.858;2023-12-04T10:57:29;15.93;;;12.60;;
16822;SDS011;8528;49.976;11.858;2023-12-04T11:00:03;15.50;;;11.77;;
16822;SDS011;8528;49.976;11.858;2023-12-04T11:02:33;18.20;;;11.40;;
16822;SDS011;8528;49.976;11.858;2023-12-04T11:05:04;13.00;;;10.40;;
16822;SDS011;8528;49.976;11.858;2023-12-04T11:07:41;14.07;;;10.93;;
16822;SDS011;8528;49.976;11.858;2023-12-04T11:10:39;22.83;;;14.60;;
16822;SDS011;8528;49.976;11.858;2023-12-04T11:13:17;12.87;;;9.20;;
16822;SDS011;8528;49.976;11.858;2023-12-04T11:15:48;13.70;;;9.63;;
16822;SDS011;8528;49.976;11.858;2023-12-04T11:18:20;12.53;;;8.73;;
16822;SDS011;8528;49.976;11.858;2023-12-04T11:20:51;13.40;;;9.30;;
16822;SDS011;8528;49.976;11.858;2023-12-04T11:23:24;9.33;;;6.90;;
16822;SDS011;8528;49.976;11.858;2023-12-04T11:25:51;7.27;;;5.07;;
16822;SDS011;8528;49.976;11.858;2023-12-04T11:28:19;9.83;;;6.47;;
16822;SDS011;8528;49.976;11.858;2023-12-04T11:30:47;6.57;;;4.70;;
16822;SDS011;8528;49.976;11.858;2023-12-04T11:33:16;7.13;;;4.60;;
16822;SDS011;8528;49.976;11.858;2023-12-04T11:35:44;6.80;;;4.70;;
16822;SDS011;8528;49.976;11.858;2023-12-04T11:38:14;6.83;;;4.80;;
16822;SDS011;8528;49.976;11.858;2023-12-04T11:40:42;7.17;;;5.07;;
16822;SDS011;8528;49.976;11.858;2023-12-04T11:43:23;7.33;;;4.93;;
16822;SDS011;8528;49.976;11.858;2023-12-04T11:46:07;6.43;;;4.40;;
16822;SDS011;8528;49.976;11.858;2023-12-04T11:48:37;7.40;;;5.30;;
16822;SDS011;8528;49.976;11.858;2023-12-04T11:51:05;7.90;;;5.60;;
16822;SDS011;8528;49.976;11.858;2023-12-04T11:53:38;6.53;;;5.27;;
16822;SDS011;8528;49.976;11.858;2023-12-04T11:56:13;7.53;;;5.80;;
16822;SDS011;8528;49.976;11.858;2023-12-04T11:58:43;8.10;;;5.80;;
16822;SDS011;8528;49.976;11.858;2023-12-04T12:01:11;7.70;;;5.63;;
16822;SDS011;8528;49.976;11.858;2023-12-04T12:03:38;6.70;;;5.50;;
16822;SDS011;8528;49.976;11.858;2023-12-04T12:06:06;7.27;;;5.10;;
16822;SDS011;8528;49.976;11.858;2023-12-04T12:08:34;7.17;;;5.03;;
16822;SDS011;8528;49.976;11.858;2023-12-04T12:11:01;8.70;;;5.97;;
16822;SDS011;8528;49.976;11.858;2023-12-04T12:13:28;8.10;;;5.63;;
16822;SDS011;8528;49.976;11.858;2023-12-04T12:15:55;7.27;;;5.20;;
16822;SDS011;8528;49.976;11.858;2023-12-04T12:18:24;8.17;;;4.87;;
16822;SDS011;8528;49.976;11.858;2023-12-04T12:20:53;7.17;;;5.03;;
16822;SDS011;8528;49.976;11.858;2023-12-04T12:23:22;7.03;;;5.37;;
16822;SDS011;8528;49.976;11.858;2023-12-04T12:25:49;7.63;;;5.40;;
16822;SDS011;8528;49.976;11.858;2023-12-04T12:28:17;6.30;;;4.60;;
16822;SDS011;8528;49.976;11.858;2023-12-04T12:30:44;6.13;;;4.47;;
16822;SDS011;8528;49.976;11.858;2023-12-04T12:33:15;9.73;;;5.77;;
16822;SDS011;8528;49.976;11.858;2023-12-04T12:35:43;7.47;;;5.50;;
16822;SDS011;8528;49.976;11.858;2023-12-04T12:38:25;8.50;;;6.27;;
16822;SDS011;8528;49.976;11.858;2023-12-04T12:40:52;8.53;;;6.30;;
16822;SDS011;8528;49.976;11.858;2023-12-04T12:43:20;9.27;;;6.10;;
16822;SDS011;8528;49.976;11.858;2023-12-04T12:45:49;9.00;;;5.73;;
16822;SDS011;8528;49.976;11.858;2023-12-04T12:48:16;7.83;;;5.03;;
16822;SDS011;8528;49.976;11.858;2023-12-04T12:50:44;7.73;;;5.87;;
16822;SDS011;8528;49.976;11.858;2023-12-04T12:53:14;8.73;;;5.33;;
16822;SDS011;8528;49.976;11.858;2023-12-04T12:55:41;7.87;;;5.17;;
16822;SDS011;8528;49.976;11.858;2023-12-04T12:58:09;8.27;;;5.53;;
16822;SDS011;8528;49.976;11.858;2023-12-04T13:00:36;9.57;;;6.53;;
16822;SDS011;8528;49.976;11.858;2023-12-04T13:03:16;9.03;;;6.00;;
16822;SDS011;8528;49.976;11.858;2023-12-04T13:05:44;8.37;;;5.53;;
16822;SDS011;8528;49.976;11.858;2023-12-04T13:08:11;10.47;;;6.07;;
16822;SDS011;8528;49.976;11.858;2023-12-04T13:10:38;11.53;;;6.93;;
16822;SDS011;8528;49.976;11.858;2023-12-04T13:13:10;10.00;;;6.00;;
16822;SDS011;8528;49.976;11.858;2023-12-04T13:15:38;10.60;;;6.30;;
16822;SDS011;8528;49.976;11.858;2023-12-04T13:18:08;8.73;;;5.50;;
16822;SDS011;8528;49.976;11.858;2023-12-04T13:20:35;11.07;;;6.10;;
16822;SDS011;8528;49.976;11.858;2023-12-04T13:23:02;11.90;;;6.20;;
16822;SDS011;8528;49.976;11.858;2023-12-04T13:25:29;10.87;;;6.30;;
16822;SDS011;8528;49.976;11.858;2023-12-04T13:27:56;13.23;;;7.77;;
16822;SDS011;8528;49.976;11.858;2023-12-04T13:30:23;34.63;;;16.47;;
16822;SDS011;8528;49.976;11.858;2023-12-04T13:32:50;20.93;;;11.43;;
16822;SDS011;8528;49.976;11.858;2023-12-04T13:35:18;20.90;;;10.23;;
16822;SDS011;8528;49.976;11.858;2023-12-04T13:37:45;9.67;;;5.90;;
16822;SDS011;8528;49.976;11.858;2023-12-04T13:40:12;14.40;;;7.53;;
16822;SDS011;8528;49.976;11.858;2023-12-04T13:42:42;11.67;;;6.77;;
16822;SDS011;8528;49.976;11.858;2023-12-04T13:45:28;17.33;;;9.80;;
16822;SDS011;8528;49.976;11.858;2023-12-04T13:47:55;8.63;;;5.30;;
16822;SDS011;8528;49.976;11.858;2023-12-04T13:50:22;30.63;;;16.60;;
16822;SDS011;8528;49.976;11.858;2023-12-04T13:52:50;13.50;;;7.90;;
16822;SDS011;8528;49.976;11.858;2023-12-04T13:55:23;24.23;;;14.33;;
16822;SDS011;8528;49.976;11.858;2023-12-04T13:58:09;18.67;;;10.80;;
16822;SDS011;8528;49.976;11.858;2023-12-04T14:00:40;13.80;;;8.43;;
16822;SDS011;8528;49.976;11.858;2023-12-04T14:03:07;11.80;;;6.73;;
16822;SDS011;8528;49.976;11.858;2023-12-04T14:05:35;13.43;;;7.80;;
16822;SDS011;8528;49.976;11.858;2023-12-04T14:08:02;10.37;;;6.10;;
16822;SDS011;8528;49.976;11.858;2023-12-04T14:10:30;11.53;;;6.47;;
16822;SDS011;8528;49.976;11.858;2023-12-04T14:12:58;9.70;;;6.10;;
16822;SDS011;8528;49.976;11.858;2023-12-04T14:15:26;23.47;;;13.33;;
16822;SDS011;8528;49.976;11.858;2023-12-04T14:17:53;7.63;;;5.30;;
16822;SDS011;8528;49.976;11.858;2023-12-04T14:20:21;6.97;;;4.90;;
16822;SDS011;8528;49.976;11.858;2023-12-04T14:22:48;9.37;;;5.67;;
16822;SDS011;8528;49.976;11.858;2023-12-04T14:25:15;9.27;;;6.67;;
16822;SDS011;8528;49.976;11.858;2023-12-04T14:27:42;12.97;;;8.43;;
16822;SDS011;8528;49.976;11.858;2023-12-04T14:30:11;10.37;;;6.60;;
16822;SDS011;8528;49.976;11.858;2023-12-04T14:32:38;13.70;;;7.13;;
16822;SDS011;8528;49.976;11.858;2023-12-04T14:35:13;10.47;;;6.47;;
16822;SDS011;8528;49.976;11.858;2023-12-04T14:37:41;10.07;;;6.10;;